sensor_id;sensor_type;location;lat;lon;timestamp;P1;durP1;ratioP1;P2;durP2;ratioP2
31990;SDS011;18508;49.386;8.370;2022-07-10T00:02:24;11.60;;;8.02;;
31990;SDS011;18508;49.386;8.370;2022-07-10T00:04:53;11.88;;;7.57;;
31990;SDS011;18508;49.386;8.370;2022-07-10T00:07:21;10.98;;;7.53;;
31990;SDS011;18508;49.386;8.370;2022-07-10T00:09:48;8.98;;;6.82;;
31990;SDS011;18508;49.386;8.370;2022-07-10T00:12:16;7.82;;;6.35;;
31990;SDS011;18508;49.386;8.370;2022-07-10T00:14:44;7.65;;;6.05;;
31990;SDS011;18508;49.386;8.370;2022-07-10T00:17:15;8.00;;;6.07;;
31990;SDS011;18508;49.386;8.370;2022-07-10T00:19:44;7.82;;;5.40;;
31990;SDS011;18508;49.386;8.370;2022-07-10T00:22:13;8.15;;;5.45;;
31990;SDS011;18508;49.386;8.370;2022-07-10T00:24:40;7.97;;;5.32;;
31990;SDS011;18508;49.386;8.370;2022-07-10T00:27:08;9.27;;;5.85;;
31990;SDS011;18508;49.386;8.370;2022-07-10T00:29:36;6.03;;;5.00;;
31990;SDS011;18508;49.386;8.370;2022-07-10T00:32:05;7.32;;;4.78;;
31990;SDS011;18508;49.386;8.370;2022-07-10T00:34:33;8.30;;;5.55;;
31990;SDS011;18508;49.386;8.370;2022-07-10T00:37:03;6.35;;;4.93;;
31990;SDS011;18508;49.386;8.370;2022-07-10T00:39:32;7.00;;;4.47;;
31990;SDS011;18508;49.386;8.370;2022-07-10T00:42:06;9.98;;;5.00;;
31990;SDS011;18508;49.386;8.370;2022-07-10T00:44:35;5.88;;;4.15;;
31990;SDS011;18508;49.386;8.370;2022-07-10T00:47:03;6.63;;;4.40;;
31990;SDS011;18508;49.386;8.370;2022-07-10T00:49:32;8.20;;;4.18;;
31990;SDS011;18508;49.386;8.370;2022-07-10T00:52:01;6.05;;;4.40;;
31990;SDS011;18508;49.386;8.370;2022-07-10T00:54:34;8.02;;;4.68;;
31990;SDS011;18508;49.386;8.370;2022-07-10T00:57:03;7.75;;;4.68;;
31990;SDS011;18508;49.386;8.370;2022-07-10T00:59:33;7.35;;;4.80;;
31990;SDS011;18508;49.386;8.370;2022-07-10T01:02:02;6.65;;;4.15;;
31990;SDS011;18508;49.386;8.370;2022-07-10T01:04:31;7.57;;;4.80;;
31990;SDS011;18508;49.386;8.370;2022-07-10T01:06:59;8.52;;;4.18;;
31990;SDS011;18508;49.386;8.370;2022-07-10T01:09:29;12.27;;;4.72;;
31990;SDS011;18508;49.386;8.370;2022-07-10T01:11:58;5.88;;;4.20;;
31990;SDS011;18508;49.386;8.370;2022-07-10T01:14:28;7.07;;;3.40;;
31990;SDS011;18508;49.386;8.370;2022-07-10T01:16:56;6.10;;;3.30;;
31990;SDS011;18508;49.386;8.370;2022-07-10T01:19:24;7.18;;;3.40;;
31990;SDS011;18508;49.386;8.370;2022-07-10T01:21:54;7.03;;;3.63;;
31990;SDS011;18508;49.386;8.370;2022-07-10T01:24:22;3.60;;;2.90;;
31990;SDS011;18508;49.386;8.370;2022-07-10T01:26:50;10.43;;;3.50;;
31990;SDS011;18508;49.386;8.370;2022-07-10T01:29:18;5.53;;;3.17;;
31990;SDS011;18508;49.386;8.370;2022-07-10T01:31:49;9.40;;;3.03;;
31990;SDS011;18508;49.386;8.370;2022-07-10T01:34:22;9.95;;;4.30;;
31990;SDS011;18508;49.386;8.370;2022-07-10T01:36:50;4.82;;;3.20;;
31990;SDS011;18508;49.386;8.370;2022-07-10T01:39:19;5.15;;;3.33;;
31990;SDS011;18508;49.386;8.370;2022-07-10T01:41:47;9.48;;;3.30;;
31990;SDS011;18508;49.386;8.370;2022-07-10T01:44:15;7.13;;;3.33;;
31990;SDS011;18508;49.386;8.370;2022-07-10T01:46:44;9.30;;;3.63;;
31990;SDS011;18508;49.386;8.370;2022-07-10T01:49:12;8.05;;;4.20;;
31990;SDS011;18508;49.386;8.370;2022-07-10T01:51:40;8.75;;;3.53;;
31990;SDS011;18508;49.386;8.370;2022-07-10T01:54:09;10.95;;;4.00;;
31990;SDS011;18508;49.386;8.370;2022-07-10T01:56:38;7.40;;;3.88;;
31990;SDS011;18508;49.386;8.370;2022-07-10T01:59:06;6.68;;;3.60;;
31990;SDS011;18508;49.386;8.370;2022-07-10T02:01:34;7.38;;;3.42;;
31990;SDS011;18508;49.386;8.370;2022-07-10T02:04:03;5.20;;;3.45;;
31990;SDS011;18508;49.386;8.370;2022-07-10T02:06:49;7.57;;;3.35;;
31990;SDS011;18508;49.386;8.370;2022-07-10T02:09:17;7.03;;;3.25;;
31990;SDS011;18508;49.386;8.370;2022-07-10T02:11:46;6.90;;;3.53;;
31990;SDS011;18508;49.386;8.370;2022-07-10T02:14:15;8.13;;;3.58;;
31990;SDS011;18508;49.386;8.370;2022-07-10T02:16:43;6.00;;;3.00;;
31990;SDS011;18508;49.386;8.370;2022-07-10T02:19:11;6.60;;;2.63;;
31990;SDS011;18508;49.386;8.370;2022-07-10T02:21:39;6.28;;;3.30;;
31990;SDS011;18508;49.386;8.370;2022-07-10T02:24:07;7.82;;;3.03;;
31990;SDS011;18508;49.386;8.370;2022-07-10T02:26:35;9.00;;;3.13;;
31990;SDS011;18508;49.386;8.370;2022-07-10T02:29:05;5.63;;;3.00;;
31990;SDS011;18508;49.386;8.370;2022-07-10T02:31:33;6.20;;;2.47;;
31990;SDS011;18508;49.386;8.370;2022-07-10T02:34:06;5.97;;;2.90;;
31990;SDS011;18508;49.386;8.370;2022-07-10T02:36:35;6.45;;;2.78;;
31990;SDS011;18508;49.386;8.370;2022-07-10T02:39:04;6.43;;;3.08;;
31990;SDS011;18508;49.386;8.370;2022-07-10T02:41:32;8.23;;;2.90;;
31990;SDS011;18508;49.386;8.370;2022-07-10T02:44:02;5.75;;;2.53;;
31990;SDS011;18508;49.386;8.370;2022-07-10T02:46:31;5.38;;;2.70;;
31990;SDS011;18508;49.386;8.370;2022-07-10T02:48:59;8.57;;;2.85;;
31990;SDS011;18508;49.386;8.370;2022-07-10T02:51:28;7.10;;;2.65;;
31990;SDS011;18508;49.386;8.370;2022-07-10T02:53:56;9.65;;;2.42;;
31990;SDS011;18508;49.386;8.370;2022-07-10T02:56:24;6.55;;;2.92;;
31990;SDS011;18508;49.386;8.370;2022-07-10T02:58:52;8.10;;;2.70;;
31990;SDS011;18508;49.386;8.370;2022-07-10T03:01:20;6.95;;;2.20;;
31990;SDS011;18508;49.386;8.370;2022-07-10T03:03:50;8.23;;;2.60;;
31990;SDS011;18508;49.386;8.370;2022-07-10T03:06:18;5.45;;;2.47;;
31990;SDS011;18508;49.386;8.370;2022-07-10T03:08:46;6.65;;;2.20;;
31990;SDS011;18508;49.386;8.370;2022-07-10T03:11:14;6.20;;;2.33;;
31990;SDS011;18508;49.386;8.370;2022-07-10T03:13:41;6.07;;;2.42;;
31990;SDS011;18508;49.386;8.370;2022-07-10T03:16:09;4.75;;;1.83;;
31990;SDS011;18508;49.386;8.370;2022-07-10T03:18:37;5.15;;;2.15;;
31990;SDS011;18508;49.386;8.370;2022-07-10T03:21:08;3.92;;;2.38;;
31990;SDS011;18508;49.386;8.370;2022-07-10T03:23:36;6.30;;;2.10;;
31990;SDS011;18508;49.386;8.370;2022-07-10T03:26:05;6.88;;;2.58;;
31990;SDS011;18508;49.386;8.370;2022-07-10T03:28:34;7.07;;;2.05;;
31990;SDS011;18508;49.386;8.370;2022-07-10T03:31:02;6.10;;;2.20;;
31990;SDS011;18508;49.386;8.370;2022-07-10T03:33:30;4.47;;;1.95;;
31990;SDS011;18508;49.386;8.370;2022-07-10T03:35:58;6.97;;;1.90;;
31990;SDS011;18508;49.386;8.370;2022-07-10T03:38:28;7.22;;;2.22;;
31990;SDS011;18508;49.386;8.370;2022-07-10T03:40:56;7.60;;;2.30;;
31990;SDS011;18508;49.386;8.370;2022-07-10T03:43:25;6.97;;;2.20;;
31990;SDS011;18508;49.386;8.370;2022-07-10T03:45:53;5.68;;;2.55;;
31990;SDS011;18508;49.386;8.370;2022-07-10T03:48:21;4.90;;;2.00;;
31990;SDS011;18508;49.386;8.370;2022-07-10T03:50:49;5.03;;;2.20;;
31990;SDS011;18508;49.386;8.370;2022-07-10T03:53:17;5.75;;;1.90;;
31990;SDS011;18508;49.386;8.370;2022-07-10T03:55:47;8.73;;;2.70;;
31990;SDS011;18508;49.386;8.370;2022-07-10T03:58:15;4.90;;;2.42;;
31990;SDS011;18508;49.386;8.370;2022-07-10T04:00:42;6.57;;;2.13;;
31990;SDS011;18508;49.386;8.370;2022-07-10T04:03:10;6.22;;;2.25;;
31990;SDS011;18508;49.386;8.370;2022-07-10T04:05:39;4.97;;;2.33;;
31990;SDS011;18508;49.386;8.370;2022-07-10T04:08:07;4.63;;;2.53;;
31990;SDS011;18508;49.386;8.370;2022-07-10T04:10:36;5.63;;;2.80;;
31990;SDS011;18508;49.386;8.370;2022-07-10T04:13:06;5.88;;;2.47;;
31990;SDS011;18508;49.386;8.370;2022-07-10T04:15:33;6.43;;;2.40;;
31990;SDS011;18508;49.386;8.370;2022-07-10T04:18:01;6.88;;;2.20;;
31990;SDS011;18508;49.386;8.370;2022-07-10T04:20:30;6.63;;;2.47;;
31990;SDS011;18508;49.386;8.370;2022-07-10T04:22:57;8.25;;;2.30;;
31990;SDS011;18508;49.386;8.370;2022-07-10T04:25:25;6.03;;;2.63;;
31990;SDS011;18508;49.386;8.370;2022-07-10T04:27:53;7.60;;;2.38;;
31990;SDS011;18508;49.386;8.370;2022-07-10T04:30:22;3.75;;;2.42;;
31990;SDS011;18508;49.386;8.370;2022-07-10T04:32:50;6.95;;;2.50;;
31990;SDS011;18508;49.386;8.370;2022-07-10T04:35:18;6.68;;;2.85;;
31990;SDS011;18508;49.386;8.370;2022-07-10T04:37:46;7.93;;;2.35;;
31990;SDS011;18508;49.386;8.370;2022-07-10T04:40:14;6.22;;;2.35;;
31990;SDS011;18508;49.386;8.370;2022-07-10T04:42:42;6.93;;;3.15;;
31990;SDS011;18508;49.386;8.370;2022-07-10T04:45:10;6.28;;;2.63;;
31990;SDS011;18508;49.386;8.370;2022-07-10T04:47:39;6.53;;;2.85;;
31990;SDS011;18508;49.386;8.370;2022-07-10T04:50:08;6.13;;;2.50;;
31990;SDS011;18508;49.386;8.370;2022-07-10T04:52:36;5.45;;;2.90;;
31990;SDS011;18508;49.386;8.370;2022-07-10T04:55:04;6.88;;;3.22;;
31990;SDS011;18508;49.386;8.370;2022-07-10T04:57:33;5.53;;;2.83;;
31990;SDS011;18508;49.386;8.370;2022-07-10T05:00:01;6.60;;;2.83;;
31990;SDS011;18508;49.386;8.370;2022-07-10T05:02:29;8.65;;;2.80;;
31990;SDS011;18508;49.386;8.370;2022-07-10T05:04:58;7.68;;;2.63;;
31990;SDS011;18508;49.386;8.370;2022-07-10T05:07:26;7.97;;;2.88;;
31990;SDS011;18508;49.386;8.370;2022-07-10T05:09:54;5.00;;;2.45;;
31990;SDS011;18508;49.386;8.370;2022-07-10T05:12:22;7.82;;;2.70;;
31990;SDS011;18508;49.386;8.370;2022-07-10T05:14:50;6.07;;;2.83;;
31990;SDS011;18508;49.386;8.370;2022-07-10T05:17:18;9.52;;;2.83;;
31990;SDS011;18508;49.386;8.370;2022-07-10T05:19:46;5.75;;;2.60;;
31990;SDS011;18508;49.386;8.370;2022-07-10T05:22:15;6.80;;;2.72;;
31990;SDS011;18508;49.386;8.370;2022-07-10T05:24:43;7.00;;;2.42;;
31990;SDS011;18508;49.386;8.370;2022-07-10T05:27:11;7.90;;;2.22;;
31990;SDS011;18508;49.386;8.370;2022-07-10T05:29:39;7.25;;;2.63;;
31990;SDS011;18508;49.386;8.370;2022-07-10T05:32:07;7.40;;;2.47;;
31990;SDS011;18508;49.386;8.370;2022-07-10T05:34:35;8.13;;;2.17;;
31990;SDS011;18508;49.386;8.370;2022-07-10T05:37:03;6.13;;;2.72;;
31990;SDS011;18508;49.386;8.370;2022-07-10T05:39:34;5.60;;;2.20;;
31990;SDS011;18508;49.386;8.370;2022-07-10T05:42:02;7.90;;;2.50;;
31990;SDS011;18508;49.386;8.370;2022-07-10T05:44:31;6.10;;;2.38;;
31990;SDS011;18508;49.386;8.370;2022-07-10T05:46:59;4.28;;;1.80;;
31990;SDS011;18508;49.386;8.370;2022-07-10T05:49:27;5.18;;;2.28;;
31990;SDS011;18508;49.386;8.370;2022-07-10T05:51:55;7.68;;;2.30;;
31990;SDS011;18508;49.386;8.370;2022-07-10T05:54:23;4.63;;;1.55;;
31990;SDS011;18508;49.386;8.370;2022-07-10T05:56:53;8.25;;;2.10;;
31990;SDS011;18508;49.386;8.370;2022-07-10T05:59:21;6.20;;;1.65;;
31990;SDS011;18508;49.386;8.370;2022-07-10T06:01:49;4.90;;;2.05;;
31990;SDS011;18508;49.386;8.370;2022-07-10T06:04:17;6.47;;;1.83;;
31990;SDS011;18508;49.386;8.370;2022-07-10T06:06:45;6.95;;;1.95;;
31990;SDS011;18508;49.386;8.370;2022-07-10T06:09:13;2.45;;;1.30;;
31990;SDS011;18508;49.386;8.370;2022-07-10T06:11:41;3.53;;;1.27;;
31990;SDS011;18508;49.386;8.370;2022-07-10T06:14:13;5.53;;;1.63;;
31990;SDS011;18508;49.386;8.370;2022-07-10T06:16:41;5.43;;;1.27;;
31990;SDS011;18508;49.386;8.370;2022-07-10T06:19:09;4.88;;;1.63;;
31990;SDS011;18508;49.386;8.370;2022-07-10T06:21:37;4.43;;;1.60;;
31990;SDS011;18508;49.386;8.370;2022-07-10T06:24:05;4.25;;;1.23;;
31990;SDS011;18508;49.386;8.370;2022-07-10T06:26:33;4.78;;;1.48;;
31990;SDS011;18508;49.386;8.370;2022-07-10T06:29:01;3.60;;;1.70;;
31990;SDS011;18508;49.386;8.370;2022-07-10T06:31:30;5.90;;;1.15;;
31990;SDS011;18508;49.386;8.370;2022-07-10T06:33:58;4.70;;;1.00;;
31990;SDS011;18508;49.386;8.370;2022-07-10T06:36:26;7.80;;;1.60;;
31990;SDS011;18508;49.386;8.370;2022-07-10T06:38:59;5.75;;;1.58;;
31990;SDS011;18508;49.386;8.370;2022-07-10T06:41:27;4.47;;;1.40;;
31990;SDS011;18508;49.386;8.370;2022-07-10T06:43:55;5.35;;;1.98;;
31990;SDS011;18508;49.386;8.370;2022-07-10T06:46:23;3.53;;;1.25;;
31990;SDS011;18508;49.386;8.370;2022-07-10T06:48:52;5.10;;;1.08;;
31990;SDS011;18508;49.386;8.370;2022-07-10T06:51:19;5.85;;;1.10;;
31990;SDS011;18508;49.386;8.370;2022-07-10T06:53:47;6.18;;;1.10;;
31990;SDS011;18508;49.386;8.370;2022-07-10T06:56:15;3.63;;;1.10;;
31990;SDS011;18508;49.386;8.370;2022-07-10T06:58:44;3.08;;;0.88;;
31990;SDS011;18508;49.386;8.370;2022-07-10T07:01:18;3.65;;;1.08;;
31990;SDS011;18508;49.386;8.370;2022-07-10T07:03:46;6.50;;;1.30;;
31990;SDS011;18508;49.386;8.370;2022-07-10T07:06:15;4.80;;;0.93;;
31990;SDS011;18508;49.386;8.370;2022-07-10T07:08:43;4.07;;;1.05;;
31990;SDS011;18508;49.386;8.370;2022-07-10T07:11:11;6.97;;;1.17;;
31990;SDS011;18508;49.386;8.370;2022-07-10T07:13:39;3.33;;;1.40;;
31990;SDS011;18508;49.386;8.370;2022-07-10T07:16:07;2.90;;;1.02;;
31990;SDS011;18508;49.386;8.370;2022-07-10T07:18:36;4.63;;;0.90;;
31990;SDS011;18508;49.386;8.370;2022-07-10T07:21:13;5.63;;;1.73;;
31990;SDS011;18508;49.386;8.370;2022-07-10T07:24:00;3.45;;;1.05;;
31990;SDS011;18508;49.386;8.370;2022-07-10T07:26:30;8.73;;;1.38;;
31990;SDS011;18508;49.386;8.370;2022-07-10T07:28:58;3.10;;;0.80;;
31990;SDS011;18508;49.386;8.370;2022-07-10T07:31:26;4.10;;;0.88;;
31990;SDS011;18508;49.386;8.370;2022-07-10T07:33:54;3.47;;;0.80;;
31990;SDS011;18508;49.386;8.370;2022-07-10T07:36:21;3.63;;;0.93;;
31990;SDS011;18508;49.386;8.370;2022-07-10T07:38:49;3.50;;;0.70;;
31990;SDS011;18508;49.386;8.370;2022-07-10T07:41:20;3.13;;;1.00;;
31990;SDS011;18508;49.386;8.370;2022-07-10T07:43:49;4.05;;;0.68;;
31990;SDS011;18508;49.386;8.370;2022-07-10T07:46:17;3.05;;;0.75;;
31990;SDS011;18508;49.386;8.370;2022-07-10T07:48:45;3.58;;;0.70;;
31990;SDS011;18508;49.386;8.370;2022-07-10T07:51:13;4.68;;;1.10;;
31990;SDS011;18508;49.386;8.370;2022-07-10T07:53:41;3.05;;;0.85;;
31990;SDS011;18508;49.386;8.370;2022-07-10T07:56:10;4.07;;;0.95;;
31990;SDS011;18508;49.386;8.370;2022-07-10T07:58:39;1.73;;;0.50;;
31990;SDS011;18508;49.386;8.370;2022-07-10T08:01:08;4.07;;;0.80;;
31990;SDS011;18508;49.386;8.370;2022-07-10T08:03:36;2.90;;;0.75;;
31990;SDS011;18508;49.386;8.370;2022-07-10T08:06:23;3.75;;;1.17;;
31990;SDS011;18508;49.386;8.370;2022-07-10T08:08:51;1.58;;;0.60;;
31990;SDS011;18508;49.386;8.370;2022-07-10T08:11:19;4.05;;;0.73;;
31990;SDS011;18508;49.386;8.370;2022-07-10T08:13:50;2.58;;;0.82;;
31990;SDS011;18508;49.386;8.370;2022-07-10T08:16:18;3.72;;;0.63;;
31990;SDS011;18508;49.386;8.370;2022-07-10T08:18:46;5.82;;;0.93;;
31990;SDS011;18508;49.386;8.370;2022-07-10T08:21:14;5.97;;;0.90;;
31990;SDS011;18508;49.386;8.370;2022-07-10T08:23:42;2.83;;;0.63;;
31990;SDS011;18508;49.386;8.370;2022-07-10T08:26:10;2.92;;;0.75;;
31990;SDS011;18508;49.386;8.370;2022-07-10T08:28:38;3.65;;;0.80;;
31990;SDS011;18508;49.386;8.370;2022-07-10T08:31:08;4.15;;;0.98;;
31990;SDS011;18508;49.386;8.370;2022-07-10T08:33:41;3.60;;;0.70;;
31990;SDS011;18508;49.386;8.370;2022-07-10T08:36:09;4.60;;;0.90;;
31990;SDS011;18508;49.386;8.370;2022-07-10T08:38:57;1.95;;;0.70;;
31990;SDS011;18508;49.386;8.370;2022-07-10T08:41:26;5.22;;;0.90;;
31990;SDS011;18508;49.386;8.370;2022-07-10T08:43:54;7.13;;;1.10;;
31990;SDS011;18508;49.386;8.370;2022-07-10T08:46:23;4.85;;;0.88;;
31990;SDS011;18508;49.386;8.370;2022-07-10T08:48:53;2.20;;;0.70;;
31990;SDS011;18508;49.386;8.370;2022-07-10T08:51:23;3.72;;;0.90;;
31990;SDS011;18508;49.386;8.370;2022-07-10T08:54:03;5.60;;;1.10;;
31990;SDS011;18508;49.386;8.370;2022-07-10T08:56:33;3.30;;;0.80;;
31990;SDS011;18508;49.386;8.370;2022-07-10T08:59:03;4.03;;;0.70;;
31990;SDS011;18508;49.386;8.370;2022-07-10T09:01:33;6.57;;;0.90;;
31990;SDS011;18508;49.386;8.370;2022-07-10T09:04:01;1.77;;;0.65;;
31990;SDS011;18508;49.386;8.370;2022-07-10T09:06:29;3.22;;;0.88;;
31990;SDS011;18508;49.386;8.370;2022-07-10T09:08:58;5.20;;;0.88;;
31990;SDS011;18508;49.386;8.370;2022-07-10T09:11:28;2.97;;;0.70;;
31990;SDS011;18508;49.386;8.370;2022-07-10T09:13:57;6.18;;;0.90;;
31990;SDS011;18508;49.386;8.370;2022-07-10T09:16:27;4.15;;;1.20;;
31990;SDS011;18508;49.386;8.370;2022-07-10T09:18:58;2.42;;;0.60;;
31990;SDS011;18508;49.386;8.370;2022-07-10T09:21:43;2.95;;;0.80;;
31990;SDS011;18508;49.386;8.370;2022-07-10T09:24:12;5.22;;;1.10;;
31990;SDS011;18508;49.386;8.370;2022-07-10T09:26:40;3.20;;;0.73;;
31990;SDS011;18508;49.386;8.370;2022-07-10T09:29:09;4.20;;;0.70;;
31990;SDS011;18508;49.386;8.370;2022-07-10T09:31:48;2.50;;;0.75;;
31990;SDS011;18508;49.386;8.370;2022-07-10T09:34:19;3.40;;;1.05;;
31990;SDS011;18508;49.386;8.370;2022-07-10T09:37:19;4.03;;;1.10;;
31990;SDS011;18508;49.386;8.370;2022-07-10T09:39:51;4.47;;;0.90;;
31990;SDS011;18508;49.386;8.370;2022-07-10T09:42:32;3.28;;;0.90;;
31990;SDS011;18508;49.386;8.370;2022-07-10T09:45:15;3.08;;;0.95;;
31990;SDS011;18508;49.386;8.370;2022-07-10T09:47:45;4.78;;;0.80;;
31990;SDS011;18508;49.386;8.370;2022-07-10T09:50:26;3.78;;;0.85;;
31990;SDS011;18508;49.386;8.370;2022-07-10T09:52:56;3.92;;;1.45;;
31990;SDS011;18508;49.386;8.370;2022-07-10T09:55:25;3.47;;;1.15;;
31990;SDS011;18508;49.386;8.370;2022-07-10T09:57:56;4.07;;;0.93;;
31990;SDS011;18508;49.386;8.370;2022-07-10T10:00:26;3.67;;;0.90;;
31990;SDS011;18508;49.386;8.370;2022-07-10T10:02:56;2.83;;;0.80;;
31990;SDS011;18508;49.386;8.370;2022-07-10T10:05:39;2.97;;;0.80;;
31990;SDS011;18508;49.386;8.370;2022-07-10T10:08:11;3.17;;;0.90;;
31990;SDS011;18508;49.386;8.370;2022-07-10T10:10:44;3.60;;;0.77;;
31990;SDS011;18508;49.386;8.370;2022-07-10T10:13:15;3.25;;;0.90;;
31990;SDS011;18508;49.386;8.370;2022-07-10T10:15:45;4.18;;;1.02;;
31990;SDS011;18508;49.386;8.370;2022-07-10T10:18:15;4.88;;;0.80;;
31990;SDS011;18508;49.386;8.370;2022-07-10T10:20:46;2.47;;;0.80;;
31990;SDS011;18508;49.386;8.370;2022-07-10T10:23:14;4.63;;;1.10;;
31990;SDS011;18508;49.386;8.370;2022-07-10T10:25:44;3.95;;;0.57;;
31990;SDS011;18508;49.386;8.370;2022-07-10T10:28:13;2.47;;;0.80;;
31990;SDS011;18508;49.386;8.370;2022-07-10T10:30:43;3.85;;;1.00;;
31990;SDS011;18508;49.386;8.370;2022-07-10T10:36:14;5.63;;;0.65;;
31990;SDS011;18508;49.386;8.370;2022-07-10T10:39:02;5.65;;;1.30;;
31990;SDS011;18508;49.386;8.370;2022-07-10T10:41:37;3.35;;;0.82;;
31990;SDS011;18508;49.386;8.370;2022-07-10T10:44:22;2.35;;;1.10;;
31990;SDS011;18508;49.386;8.370;2022-07-10T10:47:01;3.58;;;1.20;;
31990;SDS011;18508;49.386;8.370;2022-07-10T10:49:48;3.55;;;0.93;;
31990;SDS011;18508;49.386;8.370;2022-07-10T10:52:29;3.67;;;0.80;;
31990;SDS011;18508;49.386;8.370;2022-07-10T10:55:01;1.48;;;0.52;;
31990;SDS011;18508;49.386;8.370;2022-07-10T10:57:42;3.03;;;0.98;;
31990;SDS011;18508;49.386;8.370;2022-07-10T11:00:30;4.78;;;1.08;;
31990;SDS011;18508;49.386;8.370;2022-07-10T11:03:19;5.32;;;0.63;;
31990;SDS011;18508;49.386;8.370;2022-07-10T11:05:50;3.90;;;0.70;;
31990;SDS011;18508;49.386;8.370;2022-07-10T11:14:04;2.80;;;1.00;;
31990;SDS011;18508;49.386;8.370;2022-07-10T11:16:34;3.03;;;1.00;;
31990;SDS011;18508;49.386;8.370;2022-07-10T11:19:09;2.90;;;0.70;;
31990;SDS011;18508;49.386;8.370;2022-07-10T11:21:41;5.63;;;1.23;;
31990;SDS011;18508;49.386;8.370;2022-07-10T11:24:31;5.40;;;1.30;;
31990;SDS011;18508;49.386;8.370;2022-07-10T11:27:12;4.63;;;1.10;;
31990;SDS011;18508;49.386;8.370;2022-07-10T11:29:56;3.47;;;1.23;;
31990;SDS011;18508;49.386;8.370;2022-07-10T11:32:24;4.47;;;1.20;;
31990;SDS011;18508;49.386;8.370;2022-07-10T11:34:53;5.57;;;1.20;;
31990;SDS011;18508;49.386;8.370;2022-07-10T11:37:21;4.38;;;1.17;;
31990;SDS011;18508;49.386;8.370;2022-07-10T11:42:52;4.82;;;1.00;;
31990;SDS011;18508;49.386;8.370;2022-07-10T11:45:22;4.38;;;1.50;;
31990;SDS011;18508;49.386;8.370;2022-07-10T11:47:55;5.60;;;1.10;;
31990;SDS011;18508;49.386;8.370;2022-07-10T11:50:23;3.72;;;0.90;;
31990;SDS011;18508;49.386;8.370;2022-07-10T11:52:53;3.65;;;1.30;;
31990;SDS011;18508;49.386;8.370;2022-07-10T11:55:23;6.30;;;1.90;;
31990;SDS011;18508;49.386;8.370;2022-07-10T11:57:55;4.65;;;1.20;;
31990;SDS011;18508;49.386;8.370;2022-07-10T12:00:27;8.73;;;3.08;;
31990;SDS011;18508;49.386;8.370;2022-07-10T12:02:57;3.05;;;1.33;;
31990;SDS011;18508;49.386;8.370;2022-07-10T12:05:44;4.43;;;1.40;;
31990;SDS011;18508;49.386;8.370;2022-07-10T12:08:12;3.50;;;1.05;;
31990;SDS011;18508;49.386;8.370;2022-07-10T12:10:42;4.47;;;1.40;;
31990;SDS011;18508;49.386;8.370;2022-07-10T12:13:13;4.05;;;1.30;;
31990;SDS011;18508;49.386;8.370;2022-07-10T12:15:43;3.60;;;1.00;;
31990;SDS011;18508;49.386;8.370;2022-07-10T12:18:15;5.15;;;1.30;;
31990;SDS011;18508;49.386;8.370;2022-07-10T12:20:45;2.58;;;1.00;;
31990;SDS011;18508;49.386;8.370;2022-07-10T12:23:14;4.05;;;1.60;;
31990;SDS011;18508;49.386;8.370;2022-07-10T12:25:45;5.03;;;1.33;;
31990;SDS011;18508;49.386;8.370;2022-07-10T12:28:15;5.40;;;1.38;;
31990;SDS011;18508;49.386;8.370;2022-07-10T12:30:44;5.78;;;1.60;;
31990;SDS011;18508;49.386;8.370;2022-07-10T12:33:14;3.50;;;1.23;;
31990;SDS011;18508;49.386;8.370;2022-07-10T12:35:47;3.00;;;1.17;;
31990;SDS011;18508;49.386;8.370;2022-07-10T12:38:19;6.53;;;1.60;;
31990;SDS011;18508;49.386;8.370;2022-07-10T12:40:50;3.47;;;1.70;;
31990;SDS011;18508;49.386;8.370;2022-07-10T12:43:25;6.28;;;1.63;;
31990;SDS011;18508;49.386;8.370;2022-07-10T12:46:13;4.72;;;1.00;;
31990;SDS011;18508;49.386;8.370;2022-07-10T12:48:43;7.20;;;1.35;;
31990;SDS011;18508;49.386;8.370;2022-07-10T12:51:24;3.38;;;1.00;;
31990;SDS011;18508;49.386;8.370;2022-07-10T12:53:53;5.00;;;1.40;;
31990;SDS011;18508;49.386;8.370;2022-07-10T12:56:36;2.83;;;1.15;;
31990;SDS011;18508;49.386;8.370;2022-07-10T13:01:41;5.97;;;1.27;;
31990;SDS011;18508;49.386;8.370;2022-07-10T13:04:10;6.28;;;1.65;;
31990;SDS011;18508;49.386;8.370;2022-07-10T13:06:39;3.67;;;1.45;;
31990;SDS011;18508;49.386;8.370;2022-07-10T13:09:20;5.05;;;1.50;;
31990;SDS011;18508;49.386;8.370;2022-07-10T13:11:51;4.07;;;1.17;;
31990;SDS011;18508;49.386;8.370;2022-07-10T13:14:20;3.63;;;1.08;;
31990;SDS011;18508;49.386;8.370;2022-07-10T13:16:49;3.72;;;1.48;;
31990;SDS011;18508;49.386;8.370;2022-07-10T13:19:17;4.40;;;1.25;;
31990;SDS011;18508;49.386;8.370;2022-07-10T13:21:45;2.20;;;1.02;;
31990;SDS011;18508;49.386;8.370;2022-07-10T13:24:13;3.67;;;1.15;;
31990;SDS011;18508;49.386;8.370;2022-07-10T13:26:41;5.97;;;1.50;;
31990;SDS011;18508;49.386;8.370;2022-07-10T13:29:11;4.30;;;1.30;;
31990;SDS011;18508;49.386;8.370;2022-07-10T13:31:39;5.22;;;1.42;;
31990;SDS011;18508;49.386;8.370;2022-07-10T13:34:07;5.28;;;1.40;;
31990;SDS011;18508;49.386;8.370;2022-07-10T13:36:35;2.70;;;1.20;;
31990;SDS011;18508;49.386;8.370;2022-07-10T13:39:03;3.83;;;1.27;;
31990;SDS011;18508;49.386;8.370;2022-07-10T13:41:31;2.45;;;1.23;;
31990;SDS011;18508;49.386;8.370;2022-07-10T13:43:59;2.72;;;1.45;;
31990;SDS011;18508;49.386;8.370;2022-07-10T13:46:28;4.50;;;1.73;;
31990;SDS011;18508;49.386;8.370;2022-07-10T13:48:57;5.93;;;1.23;;
31990;SDS011;18508;49.386;8.370;2022-07-10T13:51:25;5.38;;;1.17;;
31990;SDS011;18508;49.386;8.370;2022-07-10T13:53:53;2.63;;;1.05;;
31990;SDS011;18508;49.386;8.370;2022-07-10T13:56:21;3.65;;;1.30;;
31990;SDS011;18508;49.386;8.370;2022-07-10T13:58:50;2.45;;;0.85;;
31990;SDS011;18508;49.386;8.370;2022-07-10T14:01:18;5.82;;;1.38;;
31990;SDS011;18508;49.386;8.370;2022-07-10T14:03:47;3.38;;;1.30;;
31990;SDS011;18508;49.386;8.370;2022-07-10T14:06:16;5.53;;;1.67;;
31990;SDS011;18508;49.386;8.370;2022-07-10T14:08:44;3.97;;;1.50;;
31990;SDS011;18508;49.386;8.370;2022-07-10T14:11:12;6.63;;;1.20;;
31990;SDS011;18508;49.386;8.370;2022-07-10T14:13:40;2.92;;;1.00;;
31990;SDS011;18508;49.386;8.370;2022-07-10T14:16:08;3.47;;;1.50;;
31990;SDS011;18508;49.386;8.370;2022-07-10T14:18:36;5.07;;;1.10;;
31990;SDS011;18508;49.386;8.370;2022-07-10T14:21:08;5.32;;;1.40;;
31990;SDS011;18508;49.386;8.370;2022-07-10T14:23:37;4.38;;;1.10;;
31990;SDS011;18508;49.386;8.370;2022-07-10T14:26:08;4.13;;;1.15;;
31990;SDS011;18508;49.386;8.370;2022-07-10T14:28:36;5.05;;;1.15;;
31990;SDS011;18508;49.386;8.370;2022-07-10T14:31:05;3.20;;;1.10;;
31990;SDS011;18508;49.386;8.370;2022-07-10T14:33:34;2.92;;;1.23;;
31990;SDS011;18508;49.386;8.370;2022-07-10T14:36:03;1.92;;;0.80;;
31990;SDS011;18508;49.386;8.370;2022-07-10T14:38:33;11.55;;;1.27;;
31990;SDS011;18508;49.386;8.370;2022-07-10T14:41:03;4.43;;;1.08;;
31990;SDS011;18508;49.386;8.370;2022-07-10T14:43:32;3.28;;;1.70;;
31990;SDS011;18508;49.386;8.370;2022-07-10T14:46:01;5.63;;;1.80;;
31990;SDS011;18508;49.386;8.370;2022-07-10T14:48:30;4.05;;;1.00;;
31990;SDS011;18508;49.386;8.370;2022-07-10T14:50:59;4.85;;;0.93;;
31990;SDS011;18508;49.386;8.370;2022-07-10T14:53:27;3.20;;;0.90;;
31990;SDS011;18508;49.386;8.370;2022-07-10T14:55:57;2.38;;;0.85;;
31990;SDS011;18508;49.386;8.370;2022-07-10T14:58:25;2.00;;;1.00;;
31990;SDS011;18508;49.386;8.370;2022-07-10T15:00:53;1.65;;;0.80;;
31990;SDS011;18508;49.386;8.370;2022-07-10T15:03:21;6.80;;;1.30;;
31990;SDS011;18508;49.386;8.370;2022-07-10T15:05:49;3.33;;;0.65;;
31990;SDS011;18508;49.386;8.370;2022-07-10T15:08:19;1.65;;;0.77;;
31990;SDS011;18508;49.386;8.370;2022-07-10T15:10:47;4.50;;;1.10;;
31990;SDS011;18508;49.386;8.370;2022-07-10T15:13:16;2.75;;;0.98;;
31990;SDS011;18508;49.386;8.370;2022-07-10T15:15:44;5.22;;;1.52;;
31990;SDS011;18508;49.386;8.370;2022-07-10T15:18:14;1.42;;;0.70;;
31990;SDS011;18508;49.386;8.370;2022-07-10T15:20:42;2.72;;;0.70;;